sensor_id;sensor_type;location;lat;lon;timestamp;P1;durP1;ratioP1;P2;durP2;ratioP2
22768;SDS011;13001;51.968;5.918;2023-02-23T00:01:28;296.52;;;272.07;;
22768;SDS011;13001;51.968;5.918;2023-02-23T00:03:57;304.57;;;279.80;;
22768;SDS011;13001;51.968;5.918;2023-02-23T00:06:26;306.87;;;281.80;;
22768;SDS011;13001;51.968;5.918;2023-02-23T00:08:54;303.67;;;279.00;;
22768;SDS011;13001;51.968;5.918;2023-02-23T00:11:24;319.25;;;293.25;;
22768;SDS011;13001;51.968;5.918;2023-02-23T00:13:52;313.45;;;288.70;;
22768;SDS011;13001;51.968;5.918;2023-02-23T00:16:22;310.30;;;285.65;;
22768;SDS011;13001;51.968;5.918;2023-02-23T00:18:52;315.60;;;290.55;;
22768;SDS011;13001;51.968;5.918;2023-02-23T00:21:29;302.30;;;278.25;;
22768;SDS011;13001;51.968;5.918;2023-02-23T00:23:59;325.48;;;299.40;;
22768;SDS011;13001;51.968;5.918;2023-02-23T00:26:29;317.18;;;292.25;;
22768;SDS011;13001;51.968;5.918;2023-02-23T00:29:05;316.63;;;291.57;;
22768;SDS011;13001;51.968;5.918;2023-02-23T00:31:30;314.40;;;289.23;;
22768;SDS011;13001;51.968;5.918;2023-02-23T00:33:59;314.38;;;289.77;;
22768;SDS011;13001;51.968;5.918;2023-02-23T00:36:30;322.70;;;297.75;;
22768;SDS011;13001;51.968;5.918;2023-02-23T00:39:00;307.60;;;283.10;;
22768;SDS011;13001;51.968;5.918;2023-02-23T00:41:31;309.95;;;285.70;;
22768;SDS011;13001;51.968;5.918;2023-02-23T00:43:59;316.80;;;291.43;;
22768;SDS011;13001;51.968;5.918;2023-02-23T00:46:27;315.63;;;291.43;;
22768;SDS011;13001;51.968;5.918;2023-02-23T00:48:57;315.60;;;291.30;;
22768;SDS011;13001;51.968;5.918;2023-02-23T00:51:25;328.88;;;303.18;;
22768;SDS011;13001;51.968;5.918;2023-02-23T00:53:56;334.10;;;308.80;;
22768;SDS011;13001;51.968;5.918;2023-02-23T00:56:25;329.10;;;303.73;;
22768;SDS011;13001;51.968;5.918;2023-02-23T00:58:53;319.93;;;295.07;;
22768;SDS011;13001;51.968;5.918;2023-02-23T01:01:21;320.67;;;295.97;;
22768;SDS011;13001;51.968;5.918;2023-02-23T01:03:49;324.30;;;299.65;;
22768;SDS011;13001;51.968;5.918;2023-02-23T01:06:19;318.77;;;294.10;;
22768;SDS011;13001;51.968;5.918;2023-02-23T01:08:48;328.92;;;303.60;;
22768;SDS011;13001;51.968;5.918;2023-02-23T01:11:20;327.75;;;301.52;;
22768;SDS011;13001;51.968;5.918;2023-02-23T01:13:50;322.65;;;297.67;;
22768;SDS011;13001;51.968;5.918;2023-02-23T01:16:20;318.80;;;294.02;;
22768;SDS011;13001;51.968;5.918;2023-02-23T01:18:50;320.05;;;295.48;;
22768;SDS011;13001;51.968;5.918;2023-02-23T01:21:21;320.03;;;295.33;;
22768;SDS011;13001;51.968;5.918;2023-02-23T01:23:53;327.38;;;301.55;;
22768;SDS011;13001;51.968;5.918;2023-02-23T01:26:26;330.67;;;304.75;;
22768;SDS011;13001;51.968;5.918;2023-02-23T01:29:03;323.90;;;298.48;;
22768;SDS011;13001;51.968;5.918;2023-02-23T01:31:33;323.60;;;297.77;;
22768;SDS011;13001;51.968;5.918;2023-02-23T01:34:03;333.27;;;307.10;;
22768;SDS011;13001;51.968;5.918;2023-02-23T01:36:32;330.25;;;304.55;;
22768;SDS011;13001;51.968;5.918;2023-02-23T01:39:02;329.48;;;303.88;;
22768;SDS011;13001;51.968;5.918;2023-02-23T01:41:33;330.48;;;304.98;;
22768;SDS011;13001;51.968;5.918;2023-02-23T01:44:03;337.55;;;310.40;;
22768;SDS011;13001;51.968;5.918;2023-02-23T01:46:33;337.38;;;311.00;;
22768;SDS011;13001;51.968;5.918;2023-02-23T01:49:03;335.20;;;308.65;;
22768;SDS011;13001;51.968;5.918;2023-02-23T01:51:36;332.12;;;306.00;;
22768;SDS011;13001;51.968;5.918;2023-02-23T01:54:10;336.62;;;309.50;;
22768;SDS011;13001;51.968;5.918;2023-02-23T01:56:36;332.10;;;306.73;;
22768;SDS011;13001;51.968;5.918;2023-02-23T01:59:11;333.33;;;307.33;;
22768;SDS011;13001;51.968;5.918;2023-02-23T02:01:41;332.87;;;307.37;;
22768;SDS011;13001;51.968;5.918;2023-02-23T02:04:10;332.05;;;306.43;;
22768;SDS011;13001;51.968;5.918;2023-02-23T02:06:43;331.57;;;306.35;;
22768;SDS011;13001;51.968;5.918;2023-02-23T02:09:15;337.40;;;311.50;;
22768;SDS011;13001;51.968;5.918;2023-02-23T02:11:44;336.37;;;310.93;;
22768;SDS011;13001;51.968;5.918;2023-02-23T02:14:17;331.27;;;305.97;;
22768;SDS011;13001;51.968;5.918;2023-02-23T02:20:07;333.95;;;308.17;;
22768;SDS011;13001;51.968;5.918;2023-02-23T02:22:41;329.05;;;303.50;;
22768;SDS011;13001;51.968;5.918;2023-02-23T02:33:37;327.30;;;302.18;;
22768;SDS011;13001;51.968;5.918;2023-02-23T02:36:17;330.12;;;304.80;;
22768;SDS011;13001;51.968;5.918;2023-02-23T02:41:51;330.32;;;304.85;;
22768;SDS011;13001;51.968;5.918;2023-02-23T02:44:26;327.05;;;301.82;;
22768;SDS011;13001;51.968;5.918;2023-02-23T02:46:57;318.03;;;292.97;;
22768;SDS011;13001;51.968;5.918;2023-02-23T02:51:59;325.60;;;300.20;;
22768;SDS011;13001;51.968;5.918;2023-02-23T02:54:38;331.90;;;306.47;;
22768;SDS011;13001;51.968;5.918;2023-02-23T02:57:06;336.48;;;310.55;;
22768;SDS011;13001;51.968;5.918;2023-02-23T02:59:43;331.25;;;306.47;;
22768;SDS011;13001;51.968;5.918;2023-02-23T03:02:31;334.60;;;308.80;;
22768;SDS011;13001;51.968;5.918;2023-02-23T03:05:21;329.57;;;304.40;;
22768;SDS011;13001;51.968;5.918;2023-02-23T03:11:05;326.95;;;301.70;;
22768;SDS011;13001;51.968;5.918;2023-02-23T03:14:01;324.73;;;299.75;;
22768;SDS011;13001;51.968;5.918;2023-02-23T03:20:25;326.98;;;301.98;;
22768;SDS011;13001;51.968;5.918;2023-02-23T03:23:16;318.12;;;293.73;;
22768;SDS011;13001;51.968;5.918;2023-02-23T03:28:55;323.48;;;298.90;;
22768;SDS011;13001;51.968;5.918;2023-02-23T03:31:59;321.43;;;296.80;;
22768;SDS011;13001;51.968;5.918;2023-02-23T03:35:00;331.95;;;306.38;;
22768;SDS011;13001;51.968;5.918;2023-02-23T03:37:56;333.17;;;307.80;;
22768;SDS011;13001;51.968;5.918;2023-02-23T03:40:44;333.45;;;308.57;;
22768;SDS011;13001;51.968;5.918;2023-02-23T03:43:37;323.45;;;298.93;;
22768;SDS011;13001;51.968;5.918;2023-02-23T03:46:21;326.70;;;301.98;;
22768;SDS011;13001;51.968;5.918;2023-02-23T03:49:09;323.98;;;299.35;;
22768;SDS011;13001;51.968;5.918;2023-02-23T03:51:59;328.60;;;303.25;;
22768;SDS011;13001;51.968;5.918;2023-02-23T03:54:53;319.05;;;294.87;;
22768;SDS011;13001;51.968;5.918;2023-02-23T03:57:44;320.60;;;296.18;;
22768;SDS011;13001;51.968;5.918;2023-02-23T04:00:33;321.82;;;297.85;;
22768;SDS011;13001;51.968;5.918;2023-02-23T04:03:20;316.95;;;292.62;;
22768;SDS011;13001;51.968;5.918;2023-02-23T04:06:10;320.07;;;295.48;;
22768;SDS011;13001;51.968;5.918;2023-02-23T04:08:58;332.15;;;306.68;;
22768;SDS011;13001;51.968;5.918;2023-02-23T04:11:49;325.73;;;301.25;;
22768;SDS011;13001;51.968;5.918;2023-02-23T04:14:42;326.85;;;301.80;;
22768;SDS011;13001;51.968;5.918;2023-02-23T04:17:06;329.27;;;304.52;;
22768;SDS011;13001;51.968;5.918;2023-02-23T04:19:36;320.12;;;295.95;;
22768;SDS011;13001;51.968;5.918;2023-02-23T04:22:04;316.20;;;291.98;;
22768;SDS011;13001;51.968;5.918;2023-02-23T04:24:31;315.05;;;290.35;;
22768;SDS011;13001;51.968;5.918;2023-02-23T04:26:59;328.95;;;304.07;;
22768;SDS011;13001;51.968;5.918;2023-02-23T04:29:27;320.67;;;296.15;;
22768;SDS011;13001;51.968;5.918;2023-02-23T04:31:55;321.27;;;297.10;;
22768;SDS011;13001;51.968;5.918;2023-02-23T04:34:22;321.75;;;297.33;;
22768;SDS011;13001;51.968;5.918;2023-02-23T04:36:50;324.05;;;299.52;;
22768;SDS011;13001;51.968;5.918;2023-02-23T04:39:17;318.37;;;293.70;;
22768;SDS011;13001;51.968;5.918;2023-02-23T04:41:45;320.15;;;295.65;;
22768;SDS011;13001;51.968;5.918;2023-02-23T04:44:14;324.70;;;299.90;;
22768;SDS011;13001;51.968;5.918;2023-02-23T04:46:43;326.82;;;302.13;;
22768;SDS011;13001;51.968;5.918;2023-02-23T04:49:11;331.57;;;306.02;;
22768;SDS011;13001;51.968;5.918;2023-02-23T04:51:38;334.92;;;309.32;;
22768;SDS011;13001;51.968;5.918;2023-02-23T04:54:06;334.48;;;309.15;;
22768;SDS011;13001;51.968;5.918;2023-02-23T04:56:34;340.55;;;314.55;;
22768;SDS011;13001;51.968;5.918;2023-02-23T04:59:01;339.05;;;313.48;;
22768;SDS011;13001;51.968;5.918;2023-02-23T05:01:29;346.62;;;321.02;;
22768;SDS011;13001;51.968;5.918;2023-02-23T05:03:57;351.23;;;325.10;;
22768;SDS011;13001;51.968;5.918;2023-02-23T05:06:28;341.20;;;315.90;;
22768;SDS011;13001;51.968;5.918;2023-02-23T05:08:56;350.13;;;324.12;;
22768;SDS011;13001;51.968;5.918;2023-02-23T05:11:24;345.90;;;320.30;;
22768;SDS011;13001;51.968;5.918;2023-02-23T05:13:52;353.77;;;326.92;;
22768;SDS011;13001;51.968;5.918;2023-02-23T05:16:20;339.30;;;314.35;;
22768;SDS011;13001;51.968;5.918;2023-02-23T05:18:48;344.75;;;318.85;;
22768;SDS011;13001;51.968;5.918;2023-02-23T05:21:16;346.62;;;320.73;;
22768;SDS011;13001;51.968;5.918;2023-02-23T05:23:44;349.20;;;323.02;;
22768;SDS011;13001;51.968;5.918;2023-02-23T05:26:12;348.55;;;322.58;;
22768;SDS011;13001;51.968;5.918;2023-02-23T05:28:40;350.80;;;324.73;;
22768;SDS011;13001;51.968;5.918;2023-02-23T05:31:08;355.23;;;328.95;;
22768;SDS011;13001;51.968;5.918;2023-02-23T05:33:37;348.20;;;321.95;;
22768;SDS011;13001;51.968;5.918;2023-02-23T05:36:07;351.90;;;325.25;;
22768;SDS011;13001;51.968;5.918;2023-02-23T05:38:37;344.02;;;318.93;;
22768;SDS011;13001;51.968;5.918;2023-02-23T05:41:11;349.90;;;324.25;;
22768;SDS011;13001;51.968;5.918;2023-02-23T05:43:35;343.40;;;317.87;;
22768;SDS011;13001;51.968;5.918;2023-02-23T05:46:07;346.27;;;320.90;;
22768;SDS011;13001;51.968;5.918;2023-02-23T05:48:36;343.65;;;317.52;;
22768;SDS011;13001;51.968;5.918;2023-02-23T05:51:05;338.07;;;312.88;;
22768;SDS011;13001;51.968;5.918;2023-02-23T05:53:34;347.73;;;322.10;;
22768;SDS011;13001;51.968;5.918;2023-02-23T05:56:02;348.07;;;322.05;;
22768;SDS011;13001;51.968;5.918;2023-02-23T05:58:31;353.77;;;327.18;;
22768;SDS011;13001;51.968;5.918;2023-02-23T06:00:59;351.32;;;325.18;;
22768;SDS011;13001;51.968;5.918;2023-02-23T06:03:26;342.50;;;317.30;;
22768;SDS011;13001;51.968;5.918;2023-02-23T06:05:56;346.30;;;320.88;;
22768;SDS011;13001;51.968;5.918;2023-02-23T06:08:24;343.10;;;318.03;;
22768;SDS011;13001;51.968;5.918;2023-02-23T06:10:52;337.12;;;312.23;;
22768;SDS011;13001;51.968;5.918;2023-02-23T06:13:19;345.55;;;319.77;;
22768;SDS011;13001;51.968;5.918;2023-02-23T06:15:47;341.30;;;315.10;;
22768;SDS011;13001;51.968;5.918;2023-02-23T06:18:14;346.70;;;320.60;;
22768;SDS011;13001;51.968;5.918;2023-02-23T06:20:42;347.45;;;321.48;;
22768;SDS011;13001;51.968;5.918;2023-02-23T06:23:11;336.40;;;310.80;;
22768;SDS011;13001;51.968;5.918;2023-02-23T06:25:41;340.43;;;314.82;;
22768;SDS011;13001;51.968;5.918;2023-02-23T06:28:10;331.10;;;306.23;;
22768;SDS011;13001;51.968;5.918;2023-02-23T06:30:37;340.43;;;315.07;;
22768;SDS011;13001;51.968;5.918;2023-02-23T06:33:05;332.87;;;307.92;;
22768;SDS011;13001;51.968;5.918;2023-02-23T06:35:33;335.95;;;310.70;;
22768;SDS011;13001;51.968;5.918;2023-02-23T06:38:01;332.85;;;307.67;;
22768;SDS011;13001;51.968;5.918;2023-02-23T06:40:31;330.85;;;305.75;;
22768;SDS011;13001;51.968;5.918;2023-02-23T06:43:01;325.13;;;300.87;;
22768;SDS011;13001;51.968;5.918;2023-02-23T06:45:28;322.25;;;298.10;;
22768;SDS011;13001;51.968;5.918;2023-02-23T06:47:59;322.70;;;298.60;;
22768;SDS011;13001;51.968;5.918;2023-02-23T06:50:27;324.52;;;300.25;;
22768;SDS011;13001;51.968;5.918;2023-02-23T06:52:54;315.32;;;291.42;;
22768;SDS011;13001;51.968;5.918;2023-02-23T06:55:22;316.85;;;293.12;;
22768;SDS011;13001;51.968;5.918;2023-02-23T06:57:50;314.82;;;291.45;;
22768;SDS011;13001;51.968;5.918;2023-02-23T07:00:19;323.52;;;299.67;;
22768;SDS011;13001;51.968;5.918;2023-02-23T07:02:47;324.82;;;300.18;;
22768;SDS011;13001;51.968;5.918;2023-02-23T07:05:14;318.33;;;294.20;;
22768;SDS011;13001;51.968;5.918;2023-02-23T07:07:42;324.40;;;300.07;;
22768;SDS011;13001;51.968;5.918;2023-02-23T07:10:10;317.13;;;293.23;;
22768;SDS011;13001;51.968;5.918;2023-02-23T07:12:38;333.85;;;308.73;;
22768;SDS011;13001;51.968;5.918;2023-02-23T07:15:05;337.85;;;312.32;;
22768;SDS011;13001;51.968;5.918;2023-02-23T07:17:35;331.37;;;306.77;;
22768;SDS011;13001;51.968;5.918;2023-02-23T07:20:03;329.45;;;304.65;;
22768;SDS011;13001;51.968;5.918;2023-02-23T07:22:31;330.43;;;305.40;;
22768;SDS011;13001;51.968;5.918;2023-02-23T07:24:58;326.80;;;302.50;;
22768;SDS011;13001;51.968;5.918;2023-02-23T07:27:27;325.03;;;300.70;;
22768;SDS011;13001;51.968;5.918;2023-02-23T07:29:55;327.87;;;303.18;;
22768;SDS011;13001;51.968;5.918;2023-02-23T07:32:22;322.27;;;297.98;;
22768;SDS011;13001;51.968;5.918;2023-02-23T07:34:50;309.18;;;286.02;;
22768;SDS011;13001;51.968;5.918;2023-02-23T07:37:17;320.77;;;296.70;;
22768;SDS011;13001;51.968;5.918;2023-02-23T07:39:45;324.10;;;300.17;;
22768;SDS011;13001;51.968;5.918;2023-02-23T07:42:12;330.12;;;305.48;;
22768;SDS011;13001;51.968;5.918;2023-02-23T07:44:40;325.27;;;301.18;;
22768;SDS011;13001;51.968;5.918;2023-02-23T07:47:07;326.70;;;302.55;;
22768;SDS011;13001;51.968;5.918;2023-02-23T07:49:35;322.75;;;298.87;;
22768;SDS011;13001;51.968;5.918;2023-02-23T07:52:02;328.27;;;303.95;;
22768;SDS011;13001;51.968;5.918;2023-02-23T07:54:30;315.23;;;291.65;;
22768;SDS011;13001;51.968;5.918;2023-02-23T07:56:58;322.93;;;298.73;;
22768;SDS011;13001;51.968;5.918;2023-02-23T07:59:27;325.27;;;300.87;;
22768;SDS011;13001;51.968;5.918;2023-02-23T08:01:56;324.82;;;300.90;;
22768;SDS011;13001;51.968;5.918;2023-02-23T08:04:24;332.83;;;307.67;;
22768;SDS011;13001;51.968;5.918;2023-02-23T08:06:52;322.10;;;298.43;;
22768;SDS011;13001;51.968;5.918;2023-02-23T08:09:19;326.05;;;302.15;;
22768;SDS011;13001;51.968;5.918;2023-02-23T08:11:47;312.70;;;289.77;;
22768;SDS011;13001;51.968;5.918;2023-02-23T08:14:14;323.93;;;299.70;;
22768;SDS011;13001;51.968;5.918;2023-02-23T08:16:44;316.85;;;293.02;;
22768;SDS011;13001;51.968;5.918;2023-02-23T08:19:11;332.85;;;307.95;;
22768;SDS011;13001;51.968;5.918;2023-02-23T08:21:39;340.02;;;314.65;;
22768;SDS011;13001;51.968;5.918;2023-02-23T08:24:08;329.52;;;304.82;;
22768;SDS011;13001;51.968;5.918;2023-02-23T08:26:35;335.67;;;310.60;;
22768;SDS011;13001;51.968;5.918;2023-02-23T08:29:03;351.18;;;325.55;;
22768;SDS011;13001;51.968;5.918;2023-02-23T08:31:31;335.70;;;310.75;;
22768;SDS011;13001;51.968;5.918;2023-02-23T08:33:59;345.05;;;319.73;;
22768;SDS011;13001;51.968;5.918;2023-02-23T08:36:26;341.38;;;316.08;;
22768;SDS011;13001;51.968;5.918;2023-02-23T08:38:54;329.07;;;304.75;;
22768;SDS011;13001;51.968;5.918;2023-02-23T08:41:22;326.77;;;302.98;;
22768;SDS011;13001;51.968;5.918;2023-02-23T08:43:51;331.80;;;307.48;;
22768;SDS011;13001;51.968;5.918;2023-02-23T08:46:18;330.00;;;305.85;;
22768;SDS011;13001;51.968;5.918;2023-02-23T08:48:46;347.00;;;321.27;;
22768;SDS011;13001;51.968;5.918;2023-02-23T08:51:15;349.27;;;323.27;;
22768;SDS011;13001;51.968;5.918;2023-02-23T08:53:43;352.55;;;326.20;;
22768;SDS011;13001;51.968;5.918;2023-02-23T08:56:11;337.20;;;312.50;;
22768;SDS011;13001;51.968;5.918;2023-02-23T08:58:40;341.82;;;316.80;;
22768;SDS011;13001;51.968;5.918;2023-02-23T09:01:14;354.60;;;328.85;;
22768;SDS011;13001;51.968;5.918;2023-02-23T09:03:42;363.73;;;336.68;;
22768;SDS011;13001;51.968;5.918;2023-02-23T09:06:11;375.05;;;347.30;;
22768;SDS011;13001;51.968;5.918;2023-02-23T09:08:40;400.65;;;370.12;;
22768;SDS011;13001;51.968;5.918;2023-02-23T09:11:08;413.12;;;381.65;;
22768;SDS011;13001;51.968;5.918;2023-02-23T09:13:35;395.35;;;364.72;;
22768;SDS011;13001;51.968;5.918;2023-02-23T09:16:03;418.00;;;385.77;;
22768;SDS011;13001;51.968;5.918;2023-02-23T09:18:32;416.62;;;384.18;;
22768;SDS011;13001;51.968;5.918;2023-02-23T09:21:01;420.15;;;387.02;;
22768;SDS011;13001;51.968;5.918;2023-02-23T09:23:33;424.82;;;391.73;;
22768;SDS011;13001;51.968;5.918;2023-02-23T09:26:02;415.63;;;382.73;;
22768;SDS011;13001;51.968;5.918;2023-02-23T09:28:31;418.07;;;385.02;;
22768;SDS011;13001;51.968;5.918;2023-02-23T09:31:14;409.40;;;377.50;;
22768;SDS011;13001;51.968;5.918;2023-02-23T09:33:38;427.58;;;394.27;;
22768;SDS011;13001;51.968;5.918;2023-02-23T09:36:08;410.75;;;378.15;;
22768;SDS011;13001;51.968;5.918;2023-02-23T09:38:43;411.55;;;378.35;;
22768;SDS011;13001;51.968;5.918;2023-02-23T09:44:02;409.10;;;377.00;;
22768;SDS011;13001;51.968;5.918;2023-02-23T09:46:47;398.20;;;367.07;;
22768;SDS011;13001;51.968;5.918;2023-02-23T09:49:16;408.37;;;376.90;;
22768;SDS011;13001;51.968;5.918;2023-02-23T09:51:47;411.10;;;378.77;;
22768;SDS011;13001;51.968;5.918;2023-02-23T09:54:17;415.12;;;382.95;;
22768;SDS011;13001;51.968;5.918;2023-02-23T09:56:47;403.23;;;372.42;;
22768;SDS011;13001;51.968;5.918;2023-02-23T09:59:16;393.93;;;363.57;;
22768;SDS011;13001;51.968;5.918;2023-02-23T10:10:06;385.98;;;355.10;;
22768;SDS011;13001;51.968;5.918;2023-02-23T10:12:52;391.30;;;359.87;;
22768;SDS011;13001;51.968;5.918;2023-02-23T10:15:49;372.52;;;342.50;;
22768;SDS011;13001;51.968;5.918;2023-02-23T10:18:29;382.27;;;352.95;;
22768;SDS011;13001;51.968;5.918;2023-02-23T10:21:02;366.30;;;338.90;;
22768;SDS011;13001;51.968;5.918;2023-02-23T10:26:41;352.13;;;326.00;;
22768;SDS011;13001;51.968;5.918;2023-02-23T10:32:14;368.52;;;340.43;;
22768;SDS011;13001;51.968;5.918;2023-02-23T10:34:35;371.23;;;342.60;;
22768;SDS011;13001;51.968;5.918;2023-02-23T10:37:03;379.07;;;349.88;;
22768;SDS011;13001;51.968;5.918;2023-02-23T10:39:33;384.52;;;355.15;;
22768;SDS011;13001;51.968;5.918;2023-02-23T10:42:05;392.27;;;361.68;;
22768;SDS011;13001;51.968;5.918;2023-02-23T10:44:36;384.73;;;355.40;;
22768;SDS011;13001;51.968;5.918;2023-02-23T10:47:07;402.17;;;371.15;;
22768;SDS011;13001;51.968;5.918;2023-02-23T10:49:46;396.73;;;366.23;;
22768;SDS011;13001;51.968;5.918;2023-02-23T10:52:20;396.17;;;365.70;;
22768;SDS011;13001;51.968;5.918;2023-02-23T10:54:51;406.93;;;375.32;;
22768;SDS011;13001;51.968;5.918;2023-02-23T10:57:22;391.87;;;361.27;;
22768;SDS011;13001;51.968;5.918;2023-02-23T11:00:21;425.57;;;392.50;;
22768;SDS011;13001;51.968;5.918;2023-02-23T11:02:42;424.30;;;391.00;;
22768;SDS011;13001;51.968;5.918;2023-02-23T11:05:30;437.25;;;403.27;;
22768;SDS011;13001;51.968;5.918;2023-02-23T11:08:08;447.57;;;412.98;;
22768;SDS011;13001;51.968;5.918;2023-02-23T11:10:37;423.55;;;390.18;;
22768;SDS011;13001;51.968;5.918;2023-02-23T11:13:04;427.78;;;394.27;;
22768;SDS011;13001;51.968;5.918;2023-02-23T11:15:33;417.50;;;384.05;;
22768;SDS011;13001;51.968;5.918;2023-02-23T11:18:04;412.38;;;379.82;;
22768;SDS011;13001;51.968;5.918;2023-02-23T11:20:33;404.00;;;371.90;;
22768;SDS011;13001;51.968;5.918;2023-02-23T11:23:10;403.62;;;371.65;;
22768;SDS011;13001;51.968;5.918;2023-02-23T11:26:00;402.70;;;370.33;;
22768;SDS011;13001;51.968;5.918;2023-02-23T11:28:30;401.25;;;369.52;;
22768;SDS011;13001;51.968;5.918;2023-02-23T11:31:01;398.73;;;368.33;;
22768;SDS011;13001;51.968;5.918;2023-02-23T11:33:42;399.20;;;369.25;;
22768;SDS011;13001;51.968;5.918;2023-02-23T11:36:27;405.65;;;374.12;;
22768;SDS011;13001;51.968;5.918;2023-02-23T11:39:00;404.95;;;373.45;;
22768;SDS011;13001;51.968;5.918;2023-02-23T11:41:28;400.02;;;369.30;;
22768;SDS011;13001;51.968;5.918;2023-02-23T11:43:58;406.05;;;375.10;;
22768;SDS011;13001;51.968;5.918;2023-02-23T11:46:29;400.07;;;369.85;;
22768;SDS011;13001;51.968;5.918;2023-02-23T11:49:08;370.37;;;343.00;;
22768;SDS011;13001;51.968;5.918;2023-02-23T11:51:39;370.77;;;343.15;;
22768;SDS011;13001;51.968;5.918;2023-02-23T11:54:15;376.35;;;348.15;;
22768;SDS011;13001;51.968;5.918;2023-02-23T11:56:46;367.20;;;339.90;;
22768;SDS011;13001;51.968;5.918;2023-02-23T11:59:17;362.07;;;335.50;;
22768;SDS011;13001;51.968;5.918;2023-02-23T12:01:52;349.62;;;324.42;;
22768;SDS011;13001;51.968;5.918;2023-02-23T12:07:44;339.17;;;314.60;;
22768;SDS011;13001;51.968;5.918;2023-02-23T12:09:41;328.37;;;304.67;;
22768;SDS011;13001;51.968;5.918;2023-02-23T12:12:13;349.63;;;324.60;;
22768;SDS011;13001;51.968;5.918;2023-02-23T12:14:45;339.02;;;315.23;;
22768;SDS011;13001;51.968;5.918;2023-02-23T12:17:28;414.82;;;384.83;;
22768;SDS011;13001;51.968;5.918;2023-02-23T12:20:00;405.87;;;376.33;;
22768;SDS011;13001;51.968;5.918;2023-02-23T12:22:42;406.05;;;376.73;;
22768;SDS011;13001;51.968;5.918;2023-02-23T12:28:16;432.88;;;401.20;;
22768;SDS011;13001;51.968;5.918;2023-02-23T12:30:59;398.57;;;369.45;;
22768;SDS011;13001;51.968;5.918;2023-02-23T12:33:39;398.80;;;369.93;;
22768;SDS011;13001;51.968;5.918;2023-02-23T12:36:17;414.02;;;383.15;;
22768;SDS011;13001;51.968;5.918;2023-02-23T12:39:00;412.32;;;382.25;;
22768;SDS011;13001;51.968;5.918;2023-02-23T12:41:38;326.88;;;303.40;;
22768;SDS011;13001;51.968;5.918;2023-02-23T12:44:29;360.08;;;334.10;;
22768;SDS011;13001;51.968;5.918;2023-02-23T12:46:58;359.95;;;334.67;;
22768;SDS011;13001;51.968;5.918;2023-02-23T12:52:17;335.85;;;312.27;;
22768;SDS011;13001;51.968;5.918;2023-02-23T12:54:48;374.88;;;347.93;;
22768;SDS011;13001;51.968;5.918;2023-02-23T13:06:35;416.43;;;385.57;;
22768;SDS011;13001;51.968;5.918;2023-02-23T13:08:28;430.35;;;398.90;;
22768;SDS011;13001;51.968;5.918;2023-02-23T13:16:31;418.45;;;388.70;;
22768;SDS011;13001;51.968;5.918;2023-02-23T13:22:15;408.83;;;379.27;;
22768;SDS011;13001;51.968;5.918;2023-02-23T13:24:39;410.23;;;381.27;;
22768;SDS011;13001;51.968;5.918;2023-02-23T13:27:27;425.53;;;395.33;;
22768;SDS011;13001;51.968;5.918;2023-02-23T13:30:08;411.20;;;382.27;;
22768;SDS011;13001;51.968;5.918;2023-02-23T13:32:36;416.67;;;387.37;;
22768;SDS011;13001;51.968;5.918;2023-02-23T13:35:05;417.98;;;388.32;;
22768;SDS011;13001;51.968;5.918;2023-02-23T13:37:50;416.85;;;387.23;;
22768;SDS011;13001;51.968;5.918;2023-02-23T13:40:30;422.25;;;391.82;;
22768;SDS011;13001;51.968;5.918;2023-02-23T13:45:46;434.57;;;403.00;;
22768;SDS011;13001;51.968;5.918;2023-02-23T13:51:20;417.93;;;387.30;;
22768;SDS011;13001;51.968;5.918;2023-02-23T13:54:34;414.13;;;383.70;;
22768;SDS011;13001;51.968;5.918;2023-02-23T13:56:21;421.90;;;390.73;;
22768;SDS011;13001;51.968;5.918;2023-02-23T13:58:53;395.48;;;366.20;;
22768;SDS011;13001;51.968;5.918;2023-02-23T14:01:30;417.72;;;387.12;;
22768;SDS011;13001;51.968;5.918;2023-02-23T14:04:05;441.00;;;409.10;;
22768;SDS011;13001;51.968;5.918;2023-02-23T14:06:37;400.83;;;370.95;;
22768;SDS011;13001;51.968;5.918;2023-02-23T14:09:07;378.45;;;350.22;;
22768;SDS011;13001;51.968;5.918;2023-02-23T14:14:14;321.37;;;298.55;;
22768;SDS011;13001;51.968;5.918;2023-02-23T14:16:43;325.73;;;303.07;;
22768;SDS011;13001;51.968;5.918;2023-02-23T14:19:30;327.57;;;304.02;;
22768;SDS011;13001;51.968;5.918;2023-02-23T14:22:04;335.77;;;310.93;;
22768;SDS011;13001;51.968;5.918;2023-02-23T14:24:34;337.17;;;312.93;;
22768;SDS011;13001;51.968;5.918;2023-02-23T14:32:40;312.45;;;290.40;;
22768;SDS011;13001;51.968;5.918;2023-02-23T14:35:52;330.05;;;305.90;;
22768;SDS011;13001;51.968;5.918;2023-02-23T14:38:03;330.05;;;305.57;;
22768;SDS011;13001;51.968;5.918;2023-02-23T14:40:33;357.07;;;330.18;;
22768;SDS011;13001;51.968;5.918;2023-02-23T14:43:03;357.62;;;330.30;;
22768;SDS011;13001;51.968;5.918;2023-02-23T14:45:36;367.20;;;338.12;;
22768;SDS011;13001;51.968;5.918;2023-02-23T14:48:09;356.60;;;328.95;;
22768;SDS011;13001;51.968;5.918;2023-02-23T14:50:38;380.20;;;350.93;;
22768;SDS011;13001;51.968;5.918;2023-02-23T14:53:12;399.07;;;367.93;;
22768;SDS011;13001;51.968;5.918;2023-02-23T14:55:40;403.35;;;372.58;;
22768;SDS011;13001;51.968;5.918;2023-02-23T14:58:26;400.22;;;369.05;;
22768;SDS011;13001;51.968;5.918;2023-02-23T15:00:57;381.20;;;351.63;;
22768;SDS011;13001;51.968;5.918;2023-02-23T15:03:25;410.78;;;378.52;;
22768;SDS011;13001;51.968;5.918;2023-02-23T15:05:57;407.58;;;375.48;;
22768;SDS011;13001;51.968;5.918;2023-02-23T15:08:26;426.20;;;392.90;;
22768;SDS011;13001;51.968;5.918;2023-02-23T15:11:00;437.98;;;403.00;;
22768;SDS011;13001;51.968;5.918;2023-02-23T15:13:41;442.27;;;407.43;;
22768;SDS011;13001;51.968;5.918;2023-02-23T15:16:17;452.20;;;415.68;;
22768;SDS011;13001;51.968;5.918;2023-02-23T15:18:42;448.13;;;412.62;;
22768;SDS011;13001;51.968;5.918;2023-02-23T15:21:18;472.47;;;434.50;;
22768;SDS011;13001;51.968;5.918;2023-02-23T15:23:49;463.60;;;427.02;;
22768;SDS011;13001;51.968;5.918;2023-02-23T15:26:38;468.00;;;430.90;;
22768;SDS011;13001;51.968;5.918;2023-02-23T15:29:12;457.65;;;421.93;;
22768;SDS011;13001;51.968;5.918;2023-02-23T15:31:42;439.10;;;404.33;;
22768;SDS011;13001;51.968;5.918;2023-02-23T15:34:20;480.50;;;442.77;;
22768;SDS011;13001;51.968;5.918;2023-02-23T15:36:57;453.23;;;417.27;;
22768;SDS011;13001;51.968;5.918;2023-02-23T15:39:34;453.10;;;417.80;;
22768;SDS011;13001;51.968;5.918;2023-02-23T15:42:30;471.27;;;434.65;;
22768;SDS011;13001;51.968;5.918;2023-02-23T15:45:22;480.87;;;443.80;;
22768;SDS011;13001;51.968;5.918;2023-02-23T15:47:55;493.30;;;455.20;;
22768;SDS011;13001;51.968;5.918;2023-02-23T15:50:26;471.55;;;435.27;;